Time;durP1;ratioP1;P1;durP2;ratioP2;P2;SDS_P1;SDS_P2;PMS_P1;PMS_P2;Temp;Humidity;BMP_temperature;BMP_pressure;BME280_temperature;BME280_humidity;BME280_pressure;Samples;Min_cycle;Max_cycle;Signal;HPM_P1;HPM_P2
2021/07/12 00:01:59;;;;;;;15.05;10.93;;;614.70;2432.00;;;;;;5012258;28;20635;-80
2021/07/12 00:04:25;;;;;;;15.70;10.00;;;614.40;2432.00;;;;;;5012384;28;20025;-80
2021/07/12 00:06:51;;;;;;;12.48;9.75;;;614.40;2432.00;;;;;;5012442;28;20030;-79
2021/07/12 00:09:17;;;;;;;13.23;10.60;;;614.40;2432.00;;;;;;5015960;28;20050;-80
2021/07/12 00:11:43;;;;;;;13.70;10.60;;;614.40;2432.00;;;;;;5016095;28;20022;-80
2021/07/12 00:14:09;;;;;;;14.55;10.68;;;589.70;2432.00;;;;;;5016152;28;20060;-79
2021/07/12 00:16:35;;;;;;;13.57;10.15;;;614.40;2432.00;;;;;;5015679;28;20038;-80
2021/07/12 00:19:00;;;;;;;19.33;9.90;;;614.40;2432.00;;;;;;5015987;28;20104;-81
2021/07/12 00:21:26;;;;;;;12.95;9.98;;;614.40;2432.00;;;;;;5015902;28;20112;-79
2021/07/12 00:23:52;;;;;;;11.63;9.63;;;614.50;2432.00;;;;;;5016917;28;20026;-79
2021/07/12 00:26:18;;;;;;;12.50;9.88;;;614.40;2432.00;;;;;;5016986;28;20034;-80
2021/07/12 00:28:44;;;;;;;13.45;9.60;;;614.40;2432.00;;;;;;5015777;28;20025;-80
2021/07/12 00:31:11;;;;;;;13.70;10.52;;;589.70;2432.00;;;;;;5015802;28;20027;-79
2021/07/12 00:33:39;;;;;;;15.23;10.38;;;589.70;2432.00;;;;;;5015834;28;20054;-80
2021/07/12 00:36:06;;;;;;;17.05;12.07;;;589.50;2432.00;;;;;;5015545;28;20117;-81
2021/07/12 00:38:32;;;;;;;16.83;12.10;;;589.70;2432.00;;;;;;5015770;28;20030;-79
2021/07/12 00:40:58;;;;;;;16.95;12.00;;;589.40;2432.00;;;;;;5015686;28;20021;-78
2021/07/12 00:43:24;;;;;;;15.05;11.00;;;589.50;2432.00;;;;;;5015251;28;20018;-81
2021/07/12 00:45:51;;;;;;;17.15;11.13;;;589.50;2432.00;;;;;;5015276;28;20046;-81
2021/07/12 00:48:17;;;;;;;11.93;10.07;;;589.50;2432.00;;;;;;5015414;28;20041;-80
2021/07/12 00:50:44;;;;;;;14.68;11.32;;;589.40;2432.00;;;;;;5015091;28;20022;-78
2021/07/12 00:53:10;;;;;;;14.02;11.48;;;589.20;2432.00;;;;;;5015443;28;20095;-79
2021/07/12 00:55:38;;;;;;;14.55;11.38;;;589.10;2432.00;;;;;;5015384;28;20022;-79
2021/07/12 00:58:10;;;;;;;14.00;10.82;;;589.10;2432.00;;;;;;5015081;28;20026;-80
2021/07/12 01:00:37;;;;;;;14.95;11.05;;;589.00;2432.00;;;;;;5015381;28;20029;-79
2021/07/12 01:03:03;;;;;;;13.20;10.43;;;589.00;2432.00;;;;;;5015390;28;20026;-80
2021/07/12 01:05:31;;;;;;;16.50;10.63;;;588.90;2432.00;;;;;;5014956;28;20108;-79
2021/07/12 01:07:59;;;;;;;14.25;11.90;;;588.80;2432.00;;;;;;5015071;28;20030;-79
2021/07/12 01:10:27;;;;;;;17.00;11.93;;;563.90;2432.00;;;;;;5015233;28;20081;-79
2021/07/12 01:13:16;;;;;;;13.98;11.60;;;588.80;2432.00;;;;;;5014932;28;20021;-79
2021/07/12 01:16:23;;;;;;;16.90;11.60;;;588.80;2432.00;;;;;;5015246;28;20030;-78
2021/07/12 01:19:17;;;;;;;14.27;10.20;;;588.90;2432.00;;;;;;4993435;28;20034;-80
2021/07/12 01:22:01;;;;;;;19.73;10.77;;;589.00;2432.00;;;;;;5015204;28;20477;-81
2021/07/12 01:24:58;;;;;;;14.43;11.02;;;589.00;2432.00;;;;;;5014958;28;20021;-81
2021/07/12 01:28:00;;;;;;;18.00;10.95;;;564.00;2432.00;;;;;;5014914;28;20053;-79
2021/07/12 01:30:44;;;;;;;16.47;11.83;;;564.10;2432.00;;;;;;5014916;28;20474;-80
2021/07/12 01:34:04;;;;;;;16.90;11.60;;;563.90;2432.00;;;;;;5014472;28;20026;-79
2021/07/12 01:36:52;;;;;;;17.08;11.95;;;563.80;2432.00;;;;;;4958441;28;20037;-80
2021/07/12 01:39:28;;;;;;;15.45;11.00;;;563.80;2432.00;;;;;;5014455;28;20484;-80
2021/07/12 01:42:01;;;;;;;16.67;10.82;;;563.50;2432.00;;;;;;5015921;28;20022;-79
2021/07/12 01:44:53;;;;;;;14.07;12.45;;;563.60;2432.00;;;;;;5016022;28;20024;-78
2021/07/12 01:47:40;;;;;;;14.20;11.40;;;563.50;2432.00;;;;;;4994637;28;20034;-81
2021/07/12 01:50:13;;;;;;;16.05;10.52;;;563.60;2432.00;;;;;;4995024;28;20019;-81
2021/07/12 01:52:45;;;;;;;13.40;11.95;;;563.50;2432.00;;;;;;4994372;28;20022;-79
2021/07/12 01:55:32;;;;;;;17.63;11.82;;;563.60;2432.00;;;;;;4995727;28;20023;-81
2021/07/12 01:58:16;;;;;;;12.98;11.32;;;563.40;2432.00;;;;;;4994652;28;20489;-81
2021/07/12 02:00:44;;;;;;;16.35;11.75;;;;;;;;;;4994449;28;20045;-80
2021/07/12 02:03:15;;;;;;;14.18;12.32;;;563.60;2432.00;;;;;;4994653;28;20019;-80
2021/07/12 02:05:42;;;;;;;15.15;12.35;;;563.30;2432.00;;;;;;4994537;28;20113;-79
2021/07/12 02:08:12;;;;;;;13.02;11.25;;;563.30;2432.00;;;;;;4994127;28;20026;-81
2021/07/12 02:10:38;;;;;;;15.18;11.10;;;563.50;2432.00;;;;;;4994469;28;20367;-81
2021/07/12 02:13:06;;;;;;;13.70;10.73;;;563.50;2432.00;;;;;;4994504;28;20029;-81
2021/07/12 02:15:34;;;;;;;14.18;11.18;;;563.60;2432.00;;;;;;4995348;28;20045;-81
2021/07/12 02:18:01;;;;;;;15.25;11.20;;;563.60;2432.00;;;;;;4994326;28;20041;-81
2021/07/12 02:20:30;;;;;;;13.27;11.50;;;563.60;2432.00;;;;;;4994313;28;20026;-81
2021/07/12 02:22:56;;;;;;;14.15;11.20;;;563.60;2432.00;;;;;;4993956;28;20026;-81
2021/07/12 02:25:24;;;;;;;15.43;13.55;;;563.70;2432.00;;;;;;4994186;28;20032;-79
2021/07/12 02:27:49;;;;;;;16.30;12.75;;;563.40;2432.00;;;;;;4993782;28;20053;-79
2021/07/12 02:30:16;;;;;;;17.10;13.10;;;538.50;2406.40;;;;;;4993781;28;20450;-79
2021/07/12 02:32:44;;;;;;;15.27;12.23;;;563.20;2432.00;;;;;;4993889;28;20113;-78
2021/07/12 02:35:12;;;;;;;14.35;12.15;;;;;;;;;;4993643;28;20365;-77
2021/07/12 02:37:39;;;;;;;15.45;11.98;;;;;;;;;;4993945;28;20117;-80
2021/07/12 02:40:07;;;;;;;14.25;12.10;;;;;;;;;;4993933;28;20018;-79
2021/07/12 02:42:34;;;;;;;14.13;12.05;;;;;;;;;;4993471;28;20026;-80
2021/07/12 02:45:01;;;;;;;16.88;11.82;;;;;;;;;;5002819;28;20095;-79
2021/07/12 02:47:27;;;;;;;14.70;11.40;;;;;;;;;;5016597;28;20021;-79
2021/07/12 02:49:53;;;;;;;18.27;11.93;;;;;;;;;;5034081;28;20021;-78
2021/07/12 02:52:23;;;;;;;13.43;11.70;;;538.20;2406.40;;;;;;5016196;28;20025;-79
2021/07/12 02:54:53;;;;;;;15.32;11.73;;;538.10;2406.40;;;;;;5016255;28;20119;-82
2021/07/12 02:57:19;;;;;;;17.98;12.10;;;537.80;2406.40;;;;;;5016146;28;20029;-78
2021/07/12 02:59:45;;;;;;;15.02;12.13;;;538.00;2406.40;;;;;;5034347;28;20022;-80
2021/07/12 03:02:11;;;;;;;18.55;12.70;;;537.90;2406.40;;;;;;5034139;28;20442;-79
2021/07/12 03:04:37;;;;;;;15.70;11.75;;;538.00;2406.40;;;;;;5016150;28;20021;-82
2021/07/12 03:07:17;;;;;;;14.65;11.38;;;538.00;2406.40;;;;;;5016381;28;20083;-80
2021/07/12 03:09:46;;;;;;;21.65;12.65;;;538.20;2406.40;;;;;;5016197;28;20028;-81
2021/07/12 03:12:28;;;;;;;17.20;12.90;;;538.30;2406.40;;;;;;5016284;28;20450;-78
2021/07/12 03:15:02;;;;;;;15.00;12.63;;;538.30;2406.40;;;;;;5016315;28;20025;-80
2021/07/12 03:17:29;;;;;;;15.90;12.48;;;538.30;2406.40;;;;;;5016063;28;20413;-81
2021/07/12 03:19:58;;;;;;;14.88;12.52;;;538.40;2406.40;;;;;;5016361;28;20049;-81
2021/07/12 03:22:26;;;;;;;16.13;12.23;;;538.40;2406.40;;;;;;5016206;28;20081;-81
2021/07/12 03:24:55;;;;;;;15.32;12.57;;;538.50;2406.40;;;;;;5015918;28;20028;-79
2021/07/12 03:27:22;;;;;;;14.82;13.07;;;538.50;2406.40;;;;;;5015677;28;20116;-80
2021/07/12 03:29:51;;;;;;;15.57;13.13;;;563.20;2432.00;;;;;;5016083;28;20116;-79
2021/07/12 03:32:22;;;;;;;16.52;12.35;;;563.30;2432.00;;;;;;5015841;28;20025;-81
2021/07/12 03:34:51;;;;;;;17.27;12.05;;;563.30;2432.00;;;;;;5016094;28;20030;-79
2021/07/12 03:37:19;;;;;;;22.70;14.15;;;538.50;2406.40;;;;;;5015925;28;20458;-79
2021/07/12 03:39:45;;;;;;;22.08;15.07;;;538.50;2406.40;;;;;;5033804;28;20025;-81
2021/07/12 03:42:11;;;;;;;17.67;14.25;;;538.20;2406.40;;;;;;5016422;28;20109;-80
2021/07/12 03:44:39;;;;;;;17.08;13.40;;;538.50;2406.40;;;;;;5036968;28;20109;-81
2021/07/12 03:47:05;;;;;;;19.63;13.90;;;563.30;2432.00;;;;;;5019933;28;20037;-80
2021/07/12 03:49:32;;;;;;;18.20;14.23;;;563.30;2432.00;;;;;;5019833;28;20403;-78
2021/07/12 03:51:59;;;;;;;21.08;15.10;;;538.50;2406.40;;;;;;5019581;28;20074;-79
2021/07/12 03:54:25;;;;;;;23.60;14.55;;;563.20;2432.00;;;;;;5019751;28;20029;-79
2021/07/12 03:56:51;;;;;;;18.92;14.85;;;538.50;2406.40;;;;;;5019765;28;20033;-80
2021/07/12 03:59:17;;;;;;;23.23;15.73;;;563.30;2432.00;;;;;;5037484;28;20029;-79
2021/07/12 04:01:43;;;;;;;22.33;15.35;;;563.20;2432.00;;;;;;5019660;28;20017;-79
2021/07/12 04:04:09;;;;;;;20.00;15.50;;;538.50;2406.40;;;;;;5037468;28;20018;-80
2021/07/12 04:06:35;;;;;;;20.55;14.93;;;538.20;2406.40;;;;;;5019306;28;20476;-79
2021/07/12 04:09:01;;;;;;;22.20;12.93;;;538.10;2406.40;;;;;;5019597;28;20597;-80
2021/07/12 04:11:33;;;;;;;20.98;14.10;;;538.40;2406.40;;;;;;5019649;28;20053;-80
2021/07/12 04:13:59;;;;;;;23.92;13.25;;;538.50;2406.40;;;;;;5019442;28;20021;-80
2021/07/12 04:16:25;;;;;;;18.73;12.98;;;563.30;2432.00;;;;;;5019153;28;20025;-81
2021/07/12 04:18:51;;;;;;;23.33;14.70;;;563.30;2432.00;;;;;;5019383;28;20022;-79
2021/07/12 04:21:17;;;;;;;16.25;13.25;;;538.50;2406.40;;;;;;5018883;28;20075;-78
2021/07/12 04:23:43;;;;;;;15.80;13.80;;;563.20;2432.00;;;;;;5019428;28;20022;-81
2021/07/12 04:26:09;;;;;;;18.50;14.00;;;563.30;2432.00;;;;;;5019088;28;20113;-80
2021/07/12 04:28:35;;;;;;;18.45;12.95;;;563.30;2432.00;;;;;;5018817;28;20112;-80
2021/07/12 04:31:01;;;;;;;20.05;14.93;;;563.20;2432.00;;;;;;5019155;28;20049;-79
2021/07/12 04:33:27;;;;;;;17.75;13.98;;;538.40;2406.40;;;;;;5019098;28;20490;-79
2021/07/12 04:35:53;;;;;;;18.52;13.55;;;563.30;2432.00;;;;;;5018803;28;20048;-81
2021/07/12 04:38:18;;;;;;;16.98;13.90;;;563.40;2432.00;;;;;;5019120;28;20049;-79
2021/07/12 04:40:44;;;;;;;22.25;13.45;;;563.30;2432.00;;;;;;5018805;28;20060;-80
2021/07/12 04:43:10;;;;;;;19.35;14.15;;;563.40;2432.00;;;;;;5036267;28;20051;-78
2021/07/12 04:45:36;;;;;;;17.73;13.52;;;563.20;2432.00;;;;;;5018519;28;20046;-78
2021/07/12 04:48:02;;;;;;;16.95;14.45;;;563.20;2432.00;;;;;;5036292;28;20111;-80
2021/07/12 04:50:28;;;;;;;21.98;13.82;;;563.40;2432.00;;;;;;5018714;28;20021;-80
2021/07/12 04:52:54;;;;;;;20.63;15.07;;;563.50;2432.00;;;;;;5018592;28;20017;-81
2021/07/12 04:55:19;;;;;;;21.17;14.63;;;563.50;2432.00;;;;;;5035809;28;20044;-80
2021/07/12 04:57:46;;;;;;;25.77;14.10;;;563.50;2432.00;;;;;;5018873;28;20029;-80
2021/07/12 05:00:13;;;;;;;22.40;16.40;;;563.50;2432.00;;;;;;5018817;28;20021;-79
2021/07/12 05:02:39;;;;;;;31.20;15.25;;;563.40;2432.00;;;;;;5018264;28;20033;-78
2021/07/12 05:05:07;;;;;;;21.08;13.77;;;563.60;2432.00;;;;;;5018492;28;20029;-79
2021/07/12 05:07:33;;;;;;;23.33;13.48;;;563.60;2432.00;;;;;;5018433;28;20131;-79
2021/07/12 05:09:58;;;;;;;20.02;13.45;;;563.50;2432.00;;;;;;5018254;28;20053;-78
2021/07/12 05:12:24;;;;;;;18.67;12.68;;;563.60;2432.00;;;;;;5018486;28;20028;-80
2021/07/12 05:14:50;;;;;;;17.20;13.05;;;563.60;2432.00;;;;;;5018242;28;20453;-79
2021/07/12 05:17:16;;;;;;;16.52;12.63;;;563.70;2432.00;;;;;;5018052;28;20025;-80
2021/07/12 05:19:42;;;;;;;15.98;12.05;;;563.70;2432.00;;;;;;5018178;28;20022;-79
2021/07/12 05:22:08;;;;;;;14.85;12.48;;;563.80;2432.00;;;;;;5018187;28;20441;-79
2021/07/12 05:24:34;;;;;;;17.50;12.55;;;563.80;2432.00;;;;;;5017878;28;20032;-80
2021/07/12 05:27:00;;;;;;;21.20;12.73;;;563.80;2432.00;;;;;;5017886;28;20057;-79
2021/07/12 05:29:26;;;;;;;17.92;13.35;;;563.80;2432.00;;;;;;5035465;28;20140;-80
2021/07/12 05:31:51;;;;;;;17.95;12.93;;;563.80;2432.00;;;;;;5017810;28;20060;-79
2021/07/12 05:34:18;;;;;;;16.17;12.95;;;563.80;2432.00;;;;;;5035543;28;20029;-78
2021/07/12 05:36:45;;;;;;;18.60;13.93;;;563.90;2432.00;;;;;;5017768;28;20044;-80
2021/07/12 05:39:12;;;;;;;21.63;13.77;;;563.90;2432.00;;;;;;5018014;28;20113;-80
2021/07/12 05:41:38;;;;;;;19.65;14.00;;;564.00;2432.00;;;;;;5035753;28;20025;-80
2021/07/12 05:44:04;;;;;;;22.35;13.73;;;564.10;2432.00;;;;;;5017729;28;20033;-78
2021/07/12 05:46:30;;;;;;;20.15;13.27;;;588.80;2432.00;;;;;;5014208;28;20505;-79
2021/07/12 05:48:55;;;;;;;19.35;13.90;;;589.00;2432.00;;;;;;5014757;28;20018;-78
2021/07/12 05:51:21;;;;;;;23.45;13.93;;;589.20;2432.00;;;;;;5015163;28;20022;-79
2021/07/12 05:53:47;;;;;;;20.63;14.55;;;589.10;2432.00;;;;;;5014383;28;20030;-79
2021/07/12 05:56:13;;;;;;;22.52;14.20;;;589.20;2432.00;;;;;;5014340;28;20033;-77
2021/07/12 05:58:39;;;;;;;22.23;13.82;;;589.30;2432.00;;;;;;5013992;28;20022;-77
2021/07/12 06:01:04;;;;;;;22.70;13.73;;;589.40;2432.00;;;;;;5014396;28;20449;-78
2021/07/12 06:03:30;;;;;;;18.73;13.45;;;589.50;2432.00;;;;;;5015533;28;20022;-77
2021/07/12 06:05:56;;;;;;;22.38;14.07;;;589.60;2432.00;;;;;;5013423;28;20018;-79
2021/07/12 06:08:22;;;;;;;18.52;15.90;;;589.70;2432.00;;;;;;5014080;28;20381;-78
2021/07/12 06:10:48;;;;;;;17.48;14.07;;;589.70;2432.00;;;;;;5014036;28;20025;-78
2021/07/12 06:13:14;;;;;;;17.38;13.52;;;614.40;2432.00;;;;;;5015034;28;20072;-78
2021/07/12 06:15:40;;;;;;;17.77;13.10;;;614.50;2432.00;;;;;;5013847;28;20472;-79
2021/07/12 06:18:12;;;;;;;22.50;13.43;;;614.60;2432.00;;;;;;5018023;28;20507;-79
2021/07/12 06:20:37;;;;;;;22.40;12.68;;;614.80;2432.00;;;;;;5026284;28;20026;-77
2021/07/12 06:23:03;;;;;;;16.27;12.40;;;614.80;2432.00;;;;;;5018706;28;20358;-78
2021/07/12 06:25:29;;;;;;;17.08;12.38;;;614.90;2432.00;;;;;;5033491;28;20113;-77
2021/07/12 06:27:55;;;;;;;19.02;11.80;;;614.90;2432.00;;;;;;5033131;28;20036;-78
2021/07/12 06:30:21;;;;;;;19.98;12.70;;;614.90;2432.00;;;;;;5033286;28;20017;-77
2021/07/12 06:32:46;;;;;;;17.30;12.60;;;615.00;2432.00;;;;;;5024809;28;20112;-81
2021/07/12 06:35:13;;;;;;;20.98;12.80;;;615.20;2432.00;;;;;;5024321;28;20048;-81
2021/07/12 06:37:39;;;;;;;18.65;12.85;;;615.30;2432.00;;;;;;5022174;28;20025;-80
2021/07/12 06:40:08;;;;;;;18.95;11.93;;;640.00;2432.00;;;;;;5021251;28;20026;-82
2021/07/12 06:42:34;;;;;;;18.05;11.55;;;640.20;2432.00;;;;;;5027097;28;20017;-80
2021/07/12 06:45:01;;;;;;;18.70;11.35;;;640.30;2432.00;;;;;;5021828;28;20124;-82
2021/07/12 06:47:27;;;;;;;16.40;11.27;;;640.50;2432.00;;;;;;5004840;28;20041;-81
2021/07/12 06:49:54;;;;;;;15.13;11.25;;;640.40;2432.00;;;;;;5019977;28;20096;-82
2021/07/12 06:52:20;;;;;;;12.70;11.13;;;640.70;2432.00;;;;;;5033015;28;20029;-85
2021/07/12 06:54:46;;;;;;;17.08;10.63;;;640.70;2432.00;;;;;;5033384;28;20049;-84
2021/07/12 06:57:13;;;;;;;14.27;11.05;;;665.60;2432.00;;;;;;5033520;28;20021;-83
2021/07/12 06:59:39;;;;;;;19.55;12.00;;;665.70;2432.00;;;;;;5033382;28;20481;-84
2021/07/12 07:02:05;;;;;;;14.60;11.40;;;665.70;2432.00;;;;;;5033749;28;20029;-84
2021/07/12 07:04:31;;;;;;;15.35;10.70;;;665.80;2432.00;;;;;;5033838;28;20492;-85
2021/07/12 07:06:57;;;;;;;16.98;10.98;;;666.00;2432.00;;;;;;5033646;28;20029;-84
2021/07/12 07:09:24;;;;;;;14.27;9.88;;;666.20;2432.00;;;;;;5033096;28;20475;-83
2021/07/12 07:11:50;;;;;;;15.45;9.55;;;666.20;2432.00;;;;;;5032705;28;20029;-81
2021/07/12 07:14:15;;;;;;;13.30;9.60;;;666.40;2432.00;;;;;;5032872;28;20377;-80
2021/07/12 07:16:43;;;;;;;11.65;8.18;;;666.50;2432.00;;;;;;5031899;28;20025;-82
2021/07/12 07:19:08;;;;;;;15.65;9.70;;;691.30;2432.00;;;;;;5032835;28;20021;-82
2021/07/12 07:21:34;;;;;;;12.43;8.43;;;691.60;2432.00;;;;;;5032783;28;20025;-81
2021/07/12 07:24:00;;;;;;;13.65;8.43;;;691.70;2406.40;;;;;;5033097;28;20030;-80
2021/07/12 07:26:26;;;;;;;12.07;8.57;;;691.90;2380.80;;;;;;5032271;28;20343;-79
2021/07/12 07:28:55;;;;;;;13.40;11.40;;;692.00;2380.80;;;;;;5032329;28;20030;-79
2021/07/12 07:31:21;;;;;;;15.50;9.55;;;692.10;2380.80;;;;;;5033472;28;20060;-78
2021/07/12 07:33:47;;;;;;;13.27;10.55;;;716.80;2355.20;;;;;;5032518;28;20045;-78
2021/07/12 07:36:13;;;;;;;23.58;14.20;;;717.10;2355.20;;;;;;5032295;28;20040;-79
2021/07/12 07:38:39;;;;;;;23.40;17.58;;;717.40;2355.20;;;;;;5032573;28;20025;-79
2021/07/12 07:41:04;;;;;;;34.30;20.80;;;717.70;2329.60;;;;;;5032573;28;20099;-81
2021/07/12 07:43:31;;;;;;;32.47;16.27;;;742.40;2304.00;;;;;;5021990;28;20052;-80
2021/07/12 07:45:57;;;;;;;14.32;9.93;;;742.60;2304.00;;;;;;5025688;28;20080;-79
2021/07/12 07:48:22;;;;;;;13.30;9.88;;;742.70;2252.80;;;;;;5015919;28;20066;-80
2021/07/12 07:50:48;;;;;;;15.73;10.60;;;742.80;2252.80;;;;;;5015711;28;20018;-81
2021/07/12 07:53:15;;;;;;;13.55;10.20;;;742.90;2227.20;;;;;;5016088;28;20025;-81
2021/07/12 07:55:40;;;;;;;16.70;8.73;;;743.00;2227.20;;;;;;5015898;28;20025;-82
2021/07/12 07:58:06;;;;;;;23.90;14.40;;;743.00;2201.60;;;;;;5033572;28;20509;-80
2021/07/12 08:00:33;;;;;;;18.70;10.75;;;743.10;2176.00;;;;;;5015738;28;20075;-77
2021/07/12 08:02:59;;;;;;;17.45;10.02;;;768.20;2150.40;;;;;;5033534;28;20029;-79
2021/07/12 08:05:25;;;;;;;41.35;12.07;;;768.00;2099.20;;;;;;5033123;28;20029;-78
2021/07/12 08:07:50;;;;;;;14.52;9.98;;;743.30;2124.80;;;;;;5033394;28;20033;-80
2021/07/12 08:10:18;;;;;;;11.00;7.95;;;768.30;2073.60;;;;;;5015720;28;20028;-80
2021/07/12 08:12:45;;;;;;;21.98;11.00;;;768.20;2048.00;;;;;;5015427;28;20022;-81
2021/07/12 08:15:12;;;;;;;10.30;8.52;;;768.40;2048.00;;;;;;5015692;28;20021;-82
2021/07/12 08:17:40;;;;;;;13.77;8.57;;;768.40;2048.00;;;;;;5015432;28;20528;-80
2021/07/12 08:20:07;;;;;;;11.20;9.20;;;768.50;1996.80;;;;;;5020638;28;20021;-81
2021/07/12 08:22:33;;;;;;;13.55;8.45;;;768.80;1945.60;;;;;;5026200;28;20028;-80
2021/07/12 08:25:02;;;;;;;32.63;10.10;;;768.90;1971.20;;;;;;5021145;28;20026;-80
2021/07/12 08:27:28;;;;;;;15.85;9.57;;;793.70;1971.20;;;;;;5017142;28;20033;-81
2021/07/12 08:29:54;;;;;;;12.77;9.30;;;793.70;1971.20;;;;;;5036539;28;20017;-80
2021/07/12 08:32:21;;;;;;;21.13;12.80;;;794.00;1945.60;;;;;;5036553;28;20018;-83
2021/07/12 08:34:47;;;;;;;12.43;9.00;;;794.20;1971.20;;;;;;5037149;28;20017;-81
2021/07/12 08:37:13;;;;;;;11.32;8.73;;;794.20;1920.00;;;;;;5021803;28;20032;-81
2021/07/12 08:39:39;;;;;;;18.77;10.57;;;794.20;1894.40;;;;;;5048241;28;20073;-81
2021/07/12 08:42:06;;;;;;;17.45;9.23;;;794.50;1894.40;;;;;;5039139;28;20028;-82
2021/07/12 08:44:32;;;;;;;11.90;7.75;;;819.30;1894.40;;;;;;5039103;28;20021;-83
2021/07/12 08:46:58;;;;;;;16.95;8.57;;;794.50;1868.80;;;;;;5039170;28;20052;-82
2021/07/12 08:49:25;;;;;;;12.30;8.30;;;819.20;1843.20;;;;;;5057187;28;20020;-83
2021/07/12 08:51:51;;;;;;;14.35;8.00;;;819.40;1817.60;;;;;;5056795;28;20021;-83
2021/07/12 08:54:18;;;;;;;10.85;7.30;;;819.40;1792.00;;;;;;5038349;28;20031;-81
2021/07/12 08:56:43;;;;;;;12.07;7.85;;;794.20;1766.40;;;;;;5038753;28;20033;-82
2021/07/12 08:59:31;;;;;;;14.70;9.15;;;819.50;1766.40;;;;;;5038935;28;20027;-82
2021/07/12 09:02:19;;;;;;;13.73;10.30;;;819.70;1766.40;;;;;;5038543;28;20025;-84
2021/07/12 09:04:50;;;;;;;10.43;7.90;;;820.00;1766.40;;;;;;5038947;28;20024;-84
2021/07/12 09:07:24;;;;;;;11.77;7.38;;;820.00;1715.20;;;;;;5038702;28;20127;-84
2021/07/12 09:09:56;;;;;;;10.43;7.90;;;820.10;1715.20;;;;;;5038851;28;20036;-82
2021/07/12 09:12:23;;;;;;;9.15;7.30;;;844.80;1715.20;;;;;;5038699;28;20040;-83
2021/07/12 09:15:06;;;;;;;15.25;8.68;;;845.00;1715.20;;;;;;5038451;28;20027;-84
2021/07/12 09:17:35;;;;;;;7.95;7.10;;;844.90;1689.60;;;;;;5022154;28;20024;-84
2021/07/12 09:20:03;;;;;;;11.18;7.07;;;844.80;1689.60;;;;;;5056483;28;20032;-84
2021/07/12 09:22:37;;;;;;;9.00;6.97;;;845.20;1689.60;;;;;;5038355;28;20021;-80
2021/07/12 09:25:08;;;;;;;15.23;9.65;;;845.20;1638.40;;;;;;5037957;28;20029;-82
2021/07/12 09:27:35;;;;;;;19.95;14.20;;;;;;;;;;5037927;28;20411;-81
2021/07/12 09:30:14;;;;;;;13.98;10.38;;;845.70;1587.20;;;;;;5038008;28;20024;-80
2021/07/12 09:32:43;;;;;;;9.25;7.07;;;870.50;1561.60;;;;;;5038056;28;20021;-80
2021/07/12 09:35:11;;;;;;;9.27;6.63;;;870.50;1536.00;;;;;;5037714;28;20021;-82
2021/07/12 09:37:39;;;;;;;14.65;8.90;;;845.40;1536.00;;;;;;5037844;28;20368;-81
2021/07/12 09:40:16;;;;;;;13.95;8.63;;;845.50;1561.60;;;;;;5036881;28;20361;-80
2021/07/12 09:42:48;;;;;;;14.75;10.75;;;870.40;1587.20;;;;;;5037804;28;20056;-81
2021/07/12 09:45:19;;;;;;;14.00;9.60;;;870.50;1536.00;;;;;;5055299;28;20052;-80
2021/07/12 09:47:46;;;;;;;21.77;9.23;;;870.90;1510.40;;;;;;5055494;28;20116;-82
2021/07/12 09:50:22;;;;;;;18.38;10.20;;;871.00;1536.00;;;;;;5037648;28;20540;-81
2021/07/12 09:52:54;;;;;;;10.65;7.45;;;871.20;1484.80;;;;;;5037230;28;20107;-82
2021/07/12 09:55:23;;;;;;;13.23;6.57;;;871.30;1433.60;;;;;;5037364;28;20038;-79
2021/07/12 09:58:12;;;;;;;6.93;6.22;;;870.90;1459.20;;;;;;5032409;28;20060;-79
2021/07/12 10:00:40;;;;;;;21.10;10.40;;;870.70;1484.80;;;;;;5019307;28;20026;-81
2021/07/12 10:03:07;;;;;;;12.25;8.90;;;870.90;1484.80;;;;;;5019902;28;20021;-82
2021/07/12 10:05:33;;;;;;;12.93;8.55;;;871.10;1459.20;;;;;;5017327;28;20100;-81
2021/07/12 10:07:59;;;;;;;21.80;7.95;;;871.10;1484.80;;;;;;5017027;28;20056;-80
2021/07/12 10:10:25;;;;;;;22.85;8.45;;;871.30;1433.60;;;;;;5017414;28;20052;-80
2021/07/12 10:12:53;;;;;;;11.85;8.35;;;871.30;1433.60;;;;;;5017158;28;20528;-79
2021/07/12 10:15:19;;;;;;;17.65;9.25;;;896.20;1433.60;;;;;;5016901;28;20109;-81
2021/07/12 10:17:46;;;;;;;9.93;6.72;;;896.50;1408.00;;;;;;5017419;28;20435;-82
2021/07/12 10:20:14;;;;;;;12.75;7.40;;;896.50;1382.40;;;;;;5017433;28;20048;-83
2021/07/12 10:22:42;;;;;;;13.32;8.70;;;;;;;;;;5017244;28;20116;-83
2021/07/12 10:25:11;;;;;;;11.00;7.82;;;922.00;1382.40;;;;;;5017623;28;20018;-82
2021/07/12 10:28:04;;;;;;;12.70;9.10;;;922.10;1356.80;;;;;;5017201;28;20035;-84
2021/07/12 10:30:30;;;;;;;10.18;7.07;;;922.40;1356.80;;;;;;5012679;28;20033;-83
2021/07/12 10:33:03;;;;;;;13.25;7.55;;;922.10;1305.60;;;;;;5017327;28;20021;-82
2021/07/12 10:35:46;;;;;;;15.27;8.32;;;922.30;1331.20;;;;;;5017142;28;20515;-83
2021/07/12 10:38:18;;;;;;;10.05;7.68;;;922.50;1331.20;;;;;;5034817;28;20017;-84
2021/07/12 10:40:53;;;;;;;7.85;5.97;;;922.40;1305.60;;;;;;5016930;28;20018;-82
2021/07/12 10:43:37;;;;;;;10.48;7.95;;;922.30;1305.60;;;;;;5016790;28;20108;-83
2021/07/12 10:46:03;;;;;;;12.40;8.48;;;922.50;1356.80;;;;;;5016643;28;20041;-84
2021/07/12 10:48:37;;;;;;;20.88;18.67;;;947.20;1280.00;;;;;;5016751;28;20029;-82
2021/07/12 10:51:18;;;;;;;11.13;9.43;;;947.20;1280.00;;;;;;5016857;28;20534;-82
2021/07/12 10:54:05;;;;;;;10.90;7.82;;;947.30;1280.00;;;;;;5034955;28;20027;-83
2021/07/12 10:57:00;;;;;;;15.13;9.00;;;947.70;1280.00;;;;;;5023601;28;20043;-81
2021/07/12 10:59:32;;;;;;;10.68;8.43;;;947.90;1254.40;;;;;;5026695;28;20013;-84
2021/07/12 11:02:02;;;;;;;10.73;9.60;;;948.00;1280.00;;;;;;5028982;28;20020;-81
2021/07/12 11:04:32;;;;;;;13.18;8.10;;;947.80;1254.40;;;;;;5026628;28;20021;-81
2021/07/12 11:06:58;;;;;;;10.20;8.05;;;948.00;1228.80;;;;;;5043448;28;20029;-82
2021/07/12 11:09:48;;;;;;;10.50;7.38;;;948.10;1203.20;;;;;;5023522;28;20053;-82
2021/07/12 11:12:37;;;;;;;12.68;7.80;;;948.10;1203.20;;;;;;5043379;28;20040;-81
2021/07/12 11:15:10;;;;;;;11.32;9.38;;;972.80;1228.80;;;;;;5016355;28;20108;-81
2021/07/12 11:17:56;;;;;;;12.90;8.32;;;972.90;1228.80;;;;;;5015919;28;20056;-81
2021/07/12 11:20:42;;;;;;;25.52;11.23;;;973.10;1203.20;;;;;;5016112;28;20120;-80
2021/07/12 11:23:08;;;;;;;114.82;24.63;;;973.20;1203.20;;;;;;5015984;28;20017;-82
2021/07/12 11:25:39;;;;;;;27.00;14.88;;;973.20;1177.60;;;;;;5013977;28;20029;-81
2021/07/12 11:28:18;;;;;;;566.80;82.43;;;973.30;1152.00;;;;;;5039640;28;20057;-79
2021/07/12 11:30:44;;;;;;;41.72;14.50;;;973.50;1152.00;;;;;;5014749;28;20024;-78
2021/07/12 11:33:29;;;;;;;36.75;9.52;;;973.60;1152.00;;;;;;5014209;28;20029;-80
2021/07/12 11:35:55;;;;;;;8.82;5.90;;;973.50;1126.40;;;;;;4995597;28;20453;-82
2021/07/12 11:38:21;;;;;;;9.52;6.93;;;973.50;1126.40;;;;;;5031725;28;20025;-78
2021/07/12 11:40:52;;;;;;;8.23;6.90;;;972.90;1152.00;;;;;;5028246;28;20044;-80
2021/07/12 11:43:27;;;;;;;8.70;6.40;;;972.90;1126.40;;;;;;5038961;28;20104;-79
2021/07/12 11:45:57;;;;;;;26.08;8.65;;;948.10;1126.40;;;;;;5042082;28;20806;-80
2021/07/12 11:48:23;;;;;;;9.70;6.72;;;973.00;1177.60;;;;;;5024919;28;20380;-80
2021/07/12 11:50:49;;;;;;;8.43;5.57;;;973.20;1126.40;;;;;;5020165;28;20028;-78
2021/07/12 11:53:15;;;;;;;10.30;5.97;;;973.10;1126.40;;;;;;5031896;28;20029;-78
2021/07/12 11:55:41;;;;;;;19.55;6.80;;;972.80;1152.00;;;;;;5032237;28;20022;-78
2021/07/12 11:58:07;;;;;;;7.30;5.82;;;972.90;1152.00;;;;;;5032196;28;20026;-80
2021/07/12 12:00:38;;;;;;;13.95;6.60;;;972.90;1177.60;;;;;;5014999;28;20033;-79
2021/07/12 12:03:08;;;;;;;15.00;10.82;;;973.20;1152.00;;;;;;5014828;28;20025;-81
2021/07/12 12:05:36;;;;;;;27.60;13.40;;;973.40;1100.80;;;;;;5018075;28;20024;-79
2021/07/12 12:08:03;;;;;;;16.23;7.93;;;973.50;1126.40;;;;;;5036378;28;20035;-79
2021/07/12 12:10:31;;;;;;;7.38;5.78;;;998.40;1152.00;;;;;;5028076;28;20462;-79
2021/07/12 12:12:59;;;;;;;9.57;6.25;;;998.50;1152.00;;;;;;5024287;28;20022;-79
2021/07/12 12:15:34;;;;;;;6.78;5.18;;;998.70;1126.40;;;;;;5029270;28;20048;-79
2021/07/12 12:18:06;;;;;;;11.52;7.28;;;998.60;1100.80;;;;;;5023928;28;20079;-79